Time;durP1;ratioP1;P1;durP2;ratioP2;P2;SDS_P1;SDS_P2;PMS_P1;PMS_P2;Temp;Humidity;BMP_temperature;BMP_pressure;BME280_temperature;BME280_humidity;BME280_pressure;Samples;Min_cycle;Max_cycle;Signal;HPM_P1;HPM_P2
2021/03/30 00:01:17;;;;;;;6.90;6.30;;;12.40;61.30;;;;;;5074066;28;20176;-78
2021/03/30 00:03:44;;;;;;;7.93;6.90;;;12.40;61.40;;;;;;5073687;28;20266;-78
2021/03/30 00:06:10;;;;;;;7.87;7.03;;;12.40;61.90;;;;;;5074031;28;20179;-78
2021/03/30 00:08:36;;;;;;;6.83;6.23;;;12.30;61.70;;;;;;5073337;28;20422;-78
2021/03/30 00:11:03;;;;;;;7.20;6.50;;;12.30;62.40;;;;;;5073904;28;20461;-78
2021/03/30 00:13:29;;;;;;;7.73;7.03;;;12.30;62.90;;;;;;5074010;28;20415;-78
2021/03/30 00:15:54;;;;;;;7.70;6.40;;;12.30;63.00;;;;;;5072980;28;20963;-78
2021/03/30 00:18:20;;;;;;;7.93;6.43;;;12.20;62.60;;;;;;5073713;28;20686;-78
2021/03/30 00:20:46;;;;;;;7.23;6.63;;;12.20;62.50;;;;;;5071870;28;20176;-78
2021/03/30 00:23:12;;;;;;;8.17;6.47;;;12.20;62.70;;;;;;5073721;28;20236;-78
2021/03/30 00:25:38;;;;;;;6.80;6.30;;;12.20;63.20;;;;;;5073004;28;20413;-75
2021/03/30 00:28:04;;;;;;;7.73;6.40;;;12.10;63.00;;;;;;5073694;28;20405;-75
2021/03/30 00:30:29;;;;;;;8.07;7.37;;;12.10;63.30;;;;;;5073195;28;20300;-74
2021/03/30 00:32:55;;;;;;;8.80;8.00;;;12.00;63.50;;;;;;5073089;28;20465;-75
2021/03/30 00:35:21;;;;;;;8.17;7.37;;;11.90;64.00;;;;;;5072149;28;20187;-75
2021/03/30 00:37:48;;;;;;;10.83;8.37;;;11.90;64.40;;;;;;5072838;28;20662;-75
2021/03/30 00:40:14;;;;;;;9.53;8.53;;;11.90;64.50;;;;;;5073376;28;20642;-75
2021/03/30 00:42:40;;;;;;;9.33;8.30;;;11.90;64.50;;;;;;5072621;28;20414;-75
2021/03/30 00:45:08;;;;;;;8.90;8.00;;;11.90;64.30;;;;;;5073086;28;20402;-78
2021/03/30 00:47:38;;;;;;;8.33;7.27;;;11.80;64.40;;;;;;5073241;28;20419;-77
2021/03/30 00:50:06;;;;;;;7.73;6.93;;;11.80;64.10;;;;;;5072993;28;20417;-77
2021/03/30 00:52:32;;;;;;;8.07;7.10;;;11.80;64.80;;;;;;5072872;28;20404;-78
2021/03/30 00:54:58;;;;;;;8.37;7.57;;;11.80;64.70;;;;;;5072492;28;20833;-78
2021/03/30 00:57:24;;;;;;;8.23;7.43;;;11.80;64.80;;;;;;5072996;28;20180;-77
2021/03/30 00:59:49;;;;;;;8.97;7.57;;;11.80;65.60;;;;;;5071005;28;20181;-77
2021/03/30 01:02:15;;;;;;;10.97;6.13;;;11.80;64.60;;;;;;5055395;28;20192;-78
2021/03/30 01:04:41;;;;;;;7.77;7.07;;;11.70;65.30;;;;;;5070419;28;20617;-78
2021/03/30 01:07:08;;;;;;;7.37;6.67;;;11.80;65.90;;;;;;5051127;28;20264;-77
2021/03/30 01:09:59;;;;;;;8.13;7.00;;;11.60;65.50;;;;;;5066087;28;20422;-77
2021/03/30 01:12:45;;;;;;;7.77;7.07;;;11.60;65.70;;;;;;5071996;28;20573;-78
2021/03/30 01:15:25;;;;;;;7.30;6.57;;;11.60;65.50;;;;;;5072771;28;20408;-78
2021/03/30 01:18:01;;;;;;;9.23;7.80;;;11.60;66.00;;;;;;5071656;28;20762;-77
2021/03/30 01:20:43;;;;;;;9.13;8.33;;;11.50;68.00;;;;;;5071375;28;20429;-78
2021/03/30 01:23:22;;;;;;;9.50;8.60;;;11.40;67.70;;;;;;5072318;28;20399;-78
2021/03/30 01:26:03;;;;;;;8.43;7.67;;;11.40;66.90;;;;;;5071125;28;20426;-78
2021/03/30 01:28:46;;;;;;;8.47;7.70;;;11.40;66.30;;;;;;5071160;28;20801;-77
2021/03/30 01:31:13;;;;;;;8.03;7.43;;;11.40;66.60;;;;;;5070328;28;20479;-78
2021/03/30 01:33:40;;;;;;;9.13;8.23;;;11.40;66.50;;;;;;5071860;28;20433;-78
2021/03/30 01:36:07;;;;;;;8.47;7.77;;;11.40;66.40;;;;;;5070649;28;20417;-78
2021/03/30 01:38:33;;;;;;;8.47;7.77;;;11.40;66.10;;;;;;5071107;28;20818;-78
2021/03/30 01:41:00;;;;;;;7.70;6.53;;;11.40;66.50;;;;;;5071362;28;20415;-78
2021/03/30 01:43:27;;;;;;;10.20;7.60;;;11.30;66.10;;;;;;5071560;28;20184;-78
2021/03/30 01:45:57;;;;;;;9.30;8.20;;;11.30;66.40;;;;;;5071143;28;20755;-77
2021/03/30 01:48:24;;;;;;;11.20;8.40;;;11.30;67.20;;;;;;5071691;28;20458;-77
2021/03/30 01:50:52;;;;;;;10.00;8.40;;;11.20;67.10;;;;;;5069528;28;20497;-78
2021/03/30 01:53:20;;;;;;;8.23;7.50;;;11.20;67.10;;;;;;5072038;28;20428;-78
2021/03/30 01:55:52;;;;;;;8.40;7.60;;;11.20;67.70;;;;;;5070914;28;20427;-78
2021/03/30 01:58:20;;;;;;;8.53;7.60;;;11.20;68.00;;;;;;5072140;28;20762;-77
2021/03/30 02:00:47;;;;;;;10.10;7.90;;;11.10;67.90;;;;;;5071143;28;20422;-78
2021/03/30 02:03:14;;;;;;;11.17;8.47;;;11.10;67.80;;;;;;5071877;28;20409;-77
2021/03/30 02:05:42;;;;;;;8.80;7.90;;;11.00;68.40;;;;;;5071647;28;20413;-78
2021/03/30 02:08:09;;;;;;;10.30;8.73;;;11.10;68.50;;;;;;5071381;28;20502;-77
2021/03/30 02:13:04;;;;;;;9.20;8.23;;;11.00;68.90;;;;;;5074771;28;20449;-77
2021/03/30 02:15:30;;;;;;;9.83;8.10;;;11.00;68.80;;;;;;5075601;28;20781;-77
2021/03/30 02:18:05;;;;;;;9.57;7.83;;;11.00;69.00;;;;;;5074916;28;20513;-76
2021/03/30 02:20:38;;;;;;;9.43;8.27;;;10.90;69.20;;;;;;5075180;28;20443;-77
2021/03/30 02:23:10;;;;;;;9.10;8.30;;;10.90;69.30;;;;;;5074855;28;20410;-77
2021/03/30 02:25:38;;;;;;;8.90;7.53;;;10.90;69.70;;;;;;5075499;28;20419;-77
2021/03/30 02:28:08;;;;;;;9.77;8.27;;;10.90;69.70;;;;;;5074446;28;20458;-77
2021/03/30 02:30:39;;;;;;;9.63;8.63;;;10.80;69.90;;;;;;5074578;28;20851;-77
2021/03/30 02:33:07;;;;;;;11.37;9.33;;;10.80;70.10;;;;;;5073470;28;20419;-77
2021/03/30 02:35:34;;;;;;;10.27;9.13;;;10.80;70.70;;;;;;5075730;28;20905;-77
2021/03/30 02:38:02;;;;;;;10.43;9.40;;;10.80;70.40;;;;;;5074610;28;20424;-77
2021/03/30 02:40:28;;;;;;;12.63;9.33;;;10.70;70.70;;;;;;5075253;28;20410;-77
2021/03/30 02:42:56;;;;;;;10.70;9.30;;;10.70;70.80;;;;;;5074129;28;20426;-77
2021/03/30 02:45:25;;;;;;;9.97;8.97;;;10.70;70.80;;;;;;5075432;28;20416;-77
2021/03/30 02:47:51;;;;;;;10.20;8.43;;;10.70;70.90;;;;;;5074458;28;20414;-77
2021/03/30 02:50:21;;;;;;;10.67;8.70;;;10.70;70.90;;;;;;5075082;28;20408;-77
2021/03/30 02:52:47;;;;;;;12.93;9.23;;;10.70;71.20;;;;;;5074271;28;20413;-77
2021/03/30 02:55:14;;;;;;;12.93;9.53;;;10.70;71.40;;;;;;5074778;28;20746;-77
2021/03/30 02:57:41;;;;;;;12.93;9.20;;;10.70;71.40;;;;;;5074922;28;20410;-77
2021/03/30 03:00:12;;;;;;;10.90;9.10;;;10.70;71.60;;;;;;5074176;28;20409;-77
2021/03/30 03:02:38;;;;;;;9.80;8.80;;;10.70;72.00;;;;;;5073556;28;20852;-77
2021/03/30 03:05:07;;;;;;;12.33;9.70;;;10.60;72.40;;;;;;5073827;28;20493;-77
2021/03/30 03:07:34;;;;;;;12.13;9.27;;;10.60;72.70;;;;;;5074493;28;20420;-76
2021/03/30 03:10:02;;;;;;;10.87;8.80;;;10.60;73.10;;;;;;5072592;28;20537;-73
2021/03/30 03:12:33;;;;;;;11.30;9.83;;;10.50;72.70;;;;;;5073842;28;20462;-74
2021/03/30 03:15:01;;;;;;;9.57;8.20;;;10.50;72.90;;;;;;5073847;28;20749;-75
2021/03/30 03:17:29;;;;;;;10.03;9.10;;;10.50;73.20;;;;;;5074406;28;20428;-76
2021/03/30 03:19:56;;;;;;;9.57;8.73;;;10.50;73.50;;;;;;5073792;28;20520;-76
2021/03/30 03:22:22;;;;;;;11.90;9.37;;;10.50;73.40;;;;;;5073713;28;20424;-76
2021/03/30 03:24:49;;;;;;;8.83;8.03;;;10.40;73.20;;;;;;5073916;28;20416;-77
2021/03/30 03:27:16;;;;;;;12.03;8.93;;;10.40;72.90;;;;;;5073779;28;20425;-76
2021/03/30 03:29:42;;;;;;;12.27;8.63;;;10.30;73.10;;;;;;5074399;28;20500;-76
2021/03/30 03:32:08;;;;;;;12.00;9.13;;;10.30;73.20;;;;;;5073425;28;20476;-76
2021/03/30 03:34:36;;;;;;;10.07;9.17;;;10.30;73.40;;;;;;5072754;28;20460;-75
2021/03/30 03:37:05;;;;;;;11.60;8.57;;;10.40;74.10;;;;;;5073475;28;20407;-76
2021/03/30 03:39:30;;;;;;;12.17;9.10;;;10.30;73.90;;;;;;5074227;28;20401;-75
2021/03/30 03:41:56;;;;;;;9.73;8.73;;;10.30;73.30;;;;;;5073375;28;20425;-76
2021/03/30 03:44:26;;;;;;;11.83;10.83;;;10.20;73.30;;;;;;5074007;28;20185;-76
2021/03/30 03:46:52;;;;;;;13.83;9.63;;;10.20;73.90;;;;;;5073117;28;20420;-77
2021/03/30 03:49:19;;;;;;;13.00;11.00;;;10.20;74.00;;;;;;5072632;28;20825;-75
2021/03/30 03:51:53;;;;;;;10.77;9.60;;;10.20;74.00;;;;;;5073893;28;20482;-76
2021/03/30 03:54:20;;;;;;;12.83;10.80;;;10.20;74.00;;;;;;5074299;28;20449;-76
2021/03/30 03:56:49;;;;;;;11.60;10.60;;;10.20;74.10;;;;;;5073663;28;20408;-76
2021/03/30 03:59:22;;;;;;;11.10;8.87;;;10.10;74.10;;;;;;5073350;28;20428;-76
2021/03/30 04:01:52;;;;;;;11.97;9.67;;;10.20;74.10;;;;;;5072980;28;20815;-77
2021/03/30 04:04:52;;;;;;;10.70;9.60;;;10.10;74.20;;;;;;5073556;28;20412;-76
2021/03/30 04:07:24;;;;;;;10.93;9.83;;;10.10;74.50;;;;;;5073566;28;20470;-76
2021/03/30 04:09:55;;;;;;;10.40;9.33;;;10.00;74.40;;;;;;5072436;28;20762;-77
2021/03/30 04:12:24;;;;;;;10.80;9.07;;;10.10;74.80;;;;;;5072911;28;20962;-76
2021/03/30 04:14:50;;;;;;;10.80;9.70;;;10.00;75.00;;;;;;5073043;28;20447;-77
2021/03/30 04:17:17;;;;;;;11.13;9.97;;;10.00;75.00;;;;;;5072841;28;20504;-76
2021/03/30 04:19:45;;;;;;;10.10;8.67;;;10.00;75.00;;;;;;5072674;28;20445;-77
2021/03/30 04:22:13;;;;;;;10.40;8.27;;;10.00;75.20;;;;;;5070880;28;20503;-77
2021/03/30 04:24:40;;;;;;;13.40;12.00;;;10.00;75.30;;;;;;5073371;28;20430;-75
2021/03/30 04:27:09;;;;;;;10.77;9.40;;;9.90;76.80;;;;;;5071335;28;20847;-78
2021/03/30 04:29:36;;;;;;;12.47;10.80;;;9.90;76.60;;;;;;5073144;28;20404;-73
2021/03/30 04:32:02;;;;;;;11.37;10.10;;;9.90;76.70;;;;;;5071408;28;20884;-73
2021/03/30 04:34:27;;;;;;;13.20;10.37;;;10.00;75.80;;;;;;5073035;28;20407;-73
2021/03/30 04:36:53;;;;;;;10.50;9.50;;;9.90;77.00;;;;;;5071289;28;20463;-74
2021/03/30 04:39:19;;;;;;;11.33;10.30;;;10.00;76.00;;;;;;5072208;28;20256;-73
2021/03/30 04:41:44;;;;;;;9.87;7.90;;;9.90;78.00;;;;;;5073130;28;20587;-73
2021/03/30 04:44:11;;;;;;;9.27;8.23;;;9.90;77.70;;;;;;5072282;28;20185;-73
2021/03/30 04:46:37;;;;;;;11.50;8.93;;;9.90;77.50;;;;;;5073266;28;20219;-73
2021/03/30 04:49:03;;;;;;;12.73;10.53;;;9.80;77.50;;;;;;5072206;28;20434;-73
2021/03/30 04:51:29;;;;;;;11.27;10.13;;;9.80;78.10;;;;;;5072955;28;20450;-73
2021/03/30 04:53:54;;;;;;;11.83;10.53;;;9.80;78.50;;;;;;5072083;28;20691;-73
2021/03/30 04:56:21;;;;;;;9.70;8.70;;;9.80;78.80;;;;;;5072918;28;20177;-73
2021/03/30 04:58:47;;;;;;;13.10;9.70;;;9.70;79.00;;;;;;5072979;28;20643;-73
2021/03/30 05:01:12;;;;;;;10.83;9.73;;;9.70;79.00;;;;;;5071855;28;20502;-73
2021/03/30 05:03:38;;;;;;;11.10;9.43;;;9.70;78.80;;;;;;5072548;28;20625;-73
2021/03/30 05:06:04;;;;;;;11.57;10.40;;;9.70;78.70;;;;;;5072332;28;20194;-76
2021/03/30 05:08:30;;;;;;;10.40;9.40;;;9.70;79.00;;;;;;5072567;28;20209;-72
2021/03/30 05:10:56;;;;;;;10.40;9.40;;;9.70;79.20;;;;;;5072169;28;20864;-73
2021/03/30 05:13:21;;;;;;;11.00;10.00;;;9.70;79.70;;;;;;5072478;28;20427;-73
2021/03/30 05:15:47;;;;;;;11.37;10.17;;;9.70;79.30;;;;;;5072445;28;20185;-72
2021/03/30 05:18:13;;;;;;;9.60;8.63;;;9.70;79.40;;;;;;5072085;28;20205;-72
2021/03/30 05:20:38;;;;;;;11.83;10.63;;;9.70;79.40;;;;;;5071329;28;20649;-73
2021/03/30 05:23:04;;;;;;;14.23;13.07;;;9.80;79.30;;;;;;5071846;28;20181;-72
2021/03/30 05:25:30;;;;;;;12.73;11.73;;;9.70;78.60;;;;;;5071421;28;20164;-72
2021/03/30 05:27:56;;;;;;;12.40;10.60;;;9.70;78.40;;;;;;5071985;28;20196;-73
2021/03/30 05:30:22;;;;;;;10.23;9.00;;;9.70;78.10;;;;;;5071892;28;20638;-73
2021/03/30 05:32:48;;;;;;;10.40;9.20;;;9.70;78.00;;;;;;5072631;28;20699;-72
2021/03/30 05:35:14;;;;;;;11.37;10.20;;;9.70;78.20;;;;;;5071775;28;20424;-72
2021/03/30 05:37:40;;;;;;;10.17;9.17;;;9.70;78.10;;;;;;5072141;28;20206;-72
2021/03/30 05:40:11;;;;;;;10.10;8.60;;;9.70;78.50;;;;;;5070250;28;20542;-72
2021/03/30 05:42:38;;;;;;;10.77;9.67;;;9.70;79.00;;;;;;5071928;28;20751;-75
2021/03/30 05:45:07;;;;;;;11.03;9.57;;;9.70;79.50;;;;;;5071128;28;20423;-76
2021/03/30 05:47:33;;;;;;;9.13;8.33;;;9.70;79.40;;;;;;5072606;28;20502;-75
2021/03/30 05:50:00;;;;;;;9.37;8.60;;;9.60;79.30;;;;;;5071707;28;20442;-75
2021/03/30 05:52:44;;;;;;;10.80;9.70;;;9.60;79.50;;;;;;5072317;28;20463;-75
2021/03/30 05:55:12;;;;;;;9.30;8.40;;;9.60;79.60;;;;;;5070711;28;20420;-77
2021/03/30 05:57:38;;;;;;;10.20;8.83;;;9.60;80.10;;;;;;5072294;28;20403;-77
2021/03/30 06:00:07;;;;;;;9.77;8.77;;;9.70;80.30;;;;;;5070178;28;20443;-74
2021/03/30 06:02:43;;;;;;;10.10;8.73;;;9.70;80.20;;;;;;5072102;28;20838;-77
2021/03/30 06:05:13;;;;;;;12.20;11.10;;;9.70;80.10;;;;;;5071524;28;20422;-74
2021/03/30 06:07:39;;;;;;;14.80;11.70;;;9.70;80.30;;;;;;5072528;28;20793;-73
2021/03/30 06:10:07;;;;;;;13.00;10.70;;;9.80;80.70;;;;;;5071673;28;20403;-72
2021/03/30 06:12:33;;;;;;;12.50;11.30;;;9.80;80.80;;;;;;5072151;28;20780;-75
2021/03/30 06:15:02;;;;;;;12.60;11.40;;;9.90;80.60;;;;;;5071615;28;20468;-75
2021/03/30 06:17:28;;;;;;;14.47;12.93;;;9.90;80.70;;;;;;5071801;28;20181;-78
2021/03/30 06:19:56;;;;;;;13.67;12.27;;;9.90;81.10;;;;;;5071624;28;20510;-78
2021/03/30 06:22:25;;;;;;;19.50;12.40;;;10.00;81.50;;;;;;5071908;28;20755;-74
2021/03/30 06:24:52;;;;;;;14.57;12.70;;;10.10;81.80;;;;;;5070804;28;20934;-74
2021/03/30 06:27:26;;;;;;;14.47;11.80;;;10.10;82.60;;;;;;5071254;28;20501;-75
2021/03/30 06:29:55;;;;;;;15.03;13.30;;;10.10;82.40;;;;;;5071460;28;21012;-78
2021/03/30 06:32:23;;;;;;;15.37;12.47;;;10.10;82.80;;;;;;5069724;28;20471;-74
2021/03/30 06:34:55;;;;;;;15.80;12.50;;;10.10;82.50;;;;;;5050830;28;20420;-75
2021/03/30 06:37:31;;;;;;;15.53;12.93;;;10.10;80.90;;;;;;5071540;28;20920;-75
2021/03/30 06:40:03;;;;;;;16.63;14.53;;;10.20;79.70;;;;;;5083833;28;20414;-75
2021/03/30 06:42:56;;;;;;;13.70;11.57;;;10.30;79.00;;;;;;5087441;28;20431;-76
2021/03/30 06:45:24;;;;;;;16.67;13.20;;;10.30;78.50;;;;;;5063096;28;20456;-74
2021/03/30 06:48:02;;;;;;;15.93;12.43;;;10.40;78.10;;;;;;5071849;28;20449;-72
2021/03/30 06:50:32;;;;;;;17.33;13.87;;;10.40;78.20;;;;;;5071156;28;20499;-75
2021/03/30 06:53:09;;;;;;;16.43;14.10;;;10.50;77.90;;;;;;5074993;28;20941;-73
2021/03/30 06:55:49;;;;;;;15.50;12.50;;;10.70;78.30;;;;;;5079357;28;20498;-75
2021/03/30 06:58:16;;;;;;;15.73;12.13;;;10.70;78.40;;;;;;5078541;28;20859;-73
2021/03/30 07:00:44;;;;;;;16.80;15.00;;;10.90;79.20;;;;;;5075335;28;20426;-74
2021/03/30 07:03:15;;;;;;;13.90;12.40;;;10.90;79.50;;;;;;5074379;28;20414;-74
2021/03/30 07:05:46;;;;;;;18.73;12.90;;;11.00;80.40;;;;;;5074838;28;20451;-74
2021/03/30 07:08:22;;;;;;;16.50;13.97;;;11.00;81.70;;;;;;5074289;28;20404;-74
2021/03/30 07:10:50;;;;;;;13.37;11.87;;;11.00;80.50;;;;;;5075079;28;20473;-78
2021/03/30 07:13:19;;;;;;;16.87;11.10;;;11.10;78.40;;;;;;5075564;28;20500;-74
2021/03/30 07:15:45;;;;;;;16.20;11.77;;;11.20;77.20;;;;;;5094804;28;20414;-74
2021/03/30 07:18:44;;;;;;;22.20;14.13;;;11.30;76.80;;;;;;5073939;28;20520;-74
2021/03/30 07:21:14;;;;;;;16.43;12.13;;;11.40;77.60;;;;;;5079666;28;20425;-74
2021/03/30 07:23:45;;;;;;;19.20;12.23;;;11.50;77.20;;;;;;5080312;28;20404;-74
2021/03/30 07:26:14;;;;;;;19.90;12.00;;;11.70;77.30;;;;;;5074007;28;20413;-74
2021/03/30 07:29:04;;;;;;;15.83;12.03;;;11.80;77.00;;;;;;5074076;28;20427;-74
2021/03/30 07:31:35;;;;;;;12.73;11.37;;;11.90;75.80;;;;;;5065440;28;20857;-74
2021/03/30 07:34:13;;;;;;;16.30;11.83;;;12.00;76.20;;;;;;5074225;28;20406;-74
2021/03/30 07:36:47;;;;;;;15.67;12.27;;;12.20;76.30;;;;;;5053372;28;20499;-74
2021/03/30 07:39:17;;;;;;;15.57;11.40;;;12.30;76.00;;;;;;5054071;28;20399;-74
2021/03/30 07:41:44;;;;;;;13.50;11.60;;;12.40;75.40;;;;;;5054374;28;20911;-74
2021/03/30 07:44:10;;;;;;;15.23;11.50;;;12.50;74.90;;;;;;5053843;28;20495;-74
2021/03/30 07:46:37;;;;;;;13.17;10.83;;;12.60;74.50;;;;;;5054777;28;20416;-74
2021/03/30 07:49:04;;;;;;;18.20;12.00;;;12.80;74.80;;;;;;5073813;28;20408;-75
2021/03/30 07:51:44;;;;;;;13.40;12.00;;;12.90;74.30;;;;;;5074325;28;20903;-75
2021/03/30 07:54:15;;;;;;;12.90;10.90;;;13.00;74.50;;;;;;5071760;28;20432;-75
2021/03/30 07:56:50;;;;;;;14.67;13.00;;;13.10;73.60;;;;;;5076554;28;20468;-74
2021/03/30 07:59:45;;;;;;;16.87;12.90;;;13.20;73.30;;;;;;5073305;28;20432;-74
2021/03/30 08:02:17;;;;;;;16.40;12.80;;;13.30;73.60;;;;;;5073041;28;20427;-74
2021/03/30 08:05:03;;;;;;;17.87;12.30;;;13.40;73.80;;;;;;5074193;28;20433;-74
2021/03/30 08:07:46;;;;;;;13.93;12.47;;;13.60;73.80;;;;;;5073522;28;20775;-74
2021/03/30 08:10:35;;;;;;;14.77;12.60;;;13.70;72.90;;;;;;5073112;28;20508;-74
2021/03/30 08:13:29;;;;;;;15.57;11.90;;;13.80;73.50;;;;;;5071910;28;20948;-74
2021/03/30 08:16:07;;;;;;;13.33;11.83;;;13.90;74.50;;;;;;5073669;28;20417;-74
2021/03/30 08:18:36;;;;;;;12.47;11.13;;;14.00;70.60;;;;;;5073982;28;20405;-74
2021/03/30 08:21:09;;;;;;;14.60;13.10;;;14.10;70.10;;;;;;5073202;28;20891;-75
2021/03/30 08:23:55;;;;;;;16.03;11.47;;;14.20;69.40;;;;;;5073722;28;20454;-74
2021/03/30 08:26:30;;;;;;;13.80;12.00;;;14.30;69.10;;;;;;5072994;28;20415;-74
2021/03/30 08:29:36;;;;;;;15.10;13.50;;;14.40;68.90;;;;;;5073378;28;20943;-74
2021/03/30 08:32:04;;;;;;;15.67;12.43;;;14.50;68.40;;;;;;5050386;28;20483;-74
2021/03/30 08:34:41;;;;;;;13.53;11.30;;;14.60;69.00;;;;;;5051151;28;20537;-74
2021/03/30 08:37:10;;;;;;;22.17;12.80;;;14.80;70.50;;;;;;5063168;28;20416;-74
2021/03/30 08:39:38;;;;;;;17.10;12.43;;;15.00;70.00;;;;;;5073546;28;20461;-74
2021/03/30 08:42:10;;;;;;;17.33;12.83;;;15.10;69.70;;;;;;5072784;28;20906;-74
2021/03/30 08:44:45;;;;;;;18.70;12.40;;;15.20;67.80;;;;;;5073281;28;20822;-74
2021/03/30 08:47:37;;;;;;;21.07;12.83;;;15.30;67.30;;;;;;5071423;28;20470;-74
2021/03/30 08:50:23;;;;;;;15.03;11.97;;;15.50;66.50;;;;;;5072998;28;20470;-75
2021/03/30 08:52:53;;;;;;;16.83;12.33;;;15.70;66.10;;;;;;5073251;28;20410;-74
2021/03/30 08:55:27;;;;;;;18.70;11.73;;;15.80;66.80;;;;;;5072754;28;20891;-74
2021/03/30 08:57:54;;;;;;;16.60;11.77;;;16.00;66.70;;;;;;5073252;28;20409;-74
2021/03/30 09:00:21;;;;;;;18.70;13.47;;;16.00;68.20;;;;;;5072513;28;20844;-74
2021/03/30 09:03:01;;;;;;;16.43;13.00;;;16.20;67.50;;;;;;5072966;28;20413;-74
2021/03/30 09:05:27;;;;;;;14.97;12.40;;;16.30;66.10;;;;;;5071200;28;20468;-74
2021/03/30 09:07:53;;;;;;;20.27;14.87;;;16.40;64.60;;;;;;5072623;28;20800;-74
2021/03/30 09:10:20;;;;;;;17.80;12.97;;;16.60;68.90;;;;;;5072513;28;20455;-74
2021/03/30 09:12:46;;;;;;;20.10;14.03;;;16.70;72.00;;;;;;5072914;28;20656;-74
2021/03/30 09:15:14;;;;;;;19.97;14.43;;;16.90;70.20;;;;;;5072032;28;20514;-74
2021/03/30 09:18:00;;;;;;;16.30;14.00;;;17.00;70.60;;;;;;5072668;28;20489;-74
2021/03/30 09:20:29;;;;;;;19.50;13.70;;;17.20;70.00;;;;;;5071536;28;20489;-74
2021/03/30 09:22:58;;;;;;;23.43;17.30;;;17.30;69.30;;;;;;5071768;28;20403;-74
2021/03/30 09:27:53;;;;;;;24.10;16.93;;;17.70;62.60;;;;;;5072639;28;20491;-74
2021/03/30 09:30:21;;;;;;;24.77;17.40;;;18.00;62.10;;;;;;5071975;28;20427;-74
2021/03/30 09:32:49;;;;;;;23.93;18.20;;;18.30;61.10;;;;;;5072283;28;20550;-74
2021/03/30 09:35:18;;;;;;;25.00;17.70;;;18.60;59.30;;;;;;5070812;28;20431;-74
2021/03/30 09:37:45;;;;;;;21.20;16.10;;;18.90;58.90;;;;;;5072559;28;20420;-74
2021/03/30 09:40:16;;;;;;;22.97;15.20;;;19.30;59.70;;;;;;5071927;28;20821;-75
2021/03/30 09:42:44;;;;;;;23.97;16.03;;;19.60;54.50;;;;;;5072238;28;20524;-74
2021/03/30 09:45:11;;;;;;;24.53;15.23;;;20.00;53.80;;;;;;5071616;28;20411;-74
2021/03/30 09:47:38;;;;;;;22.40;15.47;;;20.20;50.40;;;;;;5072722;28;20418;-74
2021/03/30 09:50:05;;;;;;;15.37;13.33;;;20.40;51.20;;;;;;5072540;28;20430;-74
2021/03/30 09:52:32;;;;;;;12.97;11.50;;;20.70;46.80;;;;;;5071735;28;20458;-74
2021/03/30 09:54:58;;;;;;;12.03;10.10;;;20.90;45.70;;;;;;5072509;28;20521;-74
2021/03/30 09:57:27;;;;;;;16.93;14.97;;;21.30;46.00;;;;;;5071772;28;20519;-74
2021/03/30 09:59:53;;;;;;;19.20;15.10;;;21.70;47.50;;;;;;5072420;28;20418;-74
2021/03/30 10:02:22;;;;;;;15.60;12.50;;;22.00;50.00;;;;;;5071760;28;20936;-75
2021/03/30 10:05:07;;;;;;;16.03;12.70;;;22.30;49.60;;;;;;5072259;28;20407;-75
2021/03/30 10:07:38;;;;;;;17.97;13.57;;;22.60;49.20;;;;;;5072247;28;20396;-74
2021/03/30 10:10:08;;;;;;;17.57;13.03;;;22.90;45.80;;;;;;5072287;28;20411;-74
2021/03/30 10:13:00;;;;;;;17.70;13.67;;;23.00;41.80;;;;;;5072146;28;20509;-75
2021/03/30 10:15:34;;;;;;;14.80;12.77;;;23.30;42.90;;;;;;5071585;28;20503;-74
2021/03/30 10:18:02;;;;;;;14.63;12.37;;;23.60;42.80;;;;;;5072292;28;20478;-75
2021/03/30 10:20:28;;;;;;;15.13;13.33;;;23.80;45.30;;;;;;5071520;28;20941;-75
2021/03/30 10:22:54;;;;;;;17.43;14.50;;;23.90;41.60;;;;;;5070979;28;20910;-75
2021/03/30 10:25:30;;;;;;;19.80;15.30;;;24.00;42.60;;;;;;5071526;28;20180;-76
2021/03/30 10:27:57;;;;;;;16.60;13.50;;;24.30;42.00;;;;;;5072252;28;20516;-76
2021/03/30 10:30:35;;;;;;;18.63;14.97;;;24.50;42.90;;;;;;5071978;28;20457;-76
2021/03/30 10:33:06;;;;;;;17.00;14.83;;;24.80;41.90;;;;;;5076125;28;20451;-75
2021/03/30 10:35:33;;;;;;;16.63;13.47;;;24.90;41.40;;;;;;5075207;28;20409;-76
2021/03/30 10:37:59;;;;;;;18.60;16.00;;;24.90;41.50;;;;;;5075732;28;20439;-75
2021/03/30 10:40:32;;;;;;;17.63;15.57;;;25.00;43.50;;;;;;5075144;28;20415;-76
2021/03/30 10:43:22;;;;;;;19.30;16.10;;;25.20;40.60;;;;;;5075632;28;20410;-75
2021/03/30 10:45:50;;;;;;;18.10;14.67;;;25.30;41.00;;;;;;5075349;28;20420;-75
2021/03/30 10:48:15;;;;;;;17.63;15.77;;;25.30;42.10;;;;;;5074963;28;20412;-76
2021/03/30 10:50:42;;;;;;;16.93;14.37;;;25.40;41.30;;;;;;5075541;28;20494;-76
2021/03/30 10:53:08;;;;;;;14.87;12.83;;;25.50;39.20;;;;;;5074291;28;20180;-74
2021/03/30 10:55:34;;;;;;;15.90;14.23;;;25.60;44.00;;;;;;5074796;28;20403;-75
2021/03/30 10:58:06;;;;;;;17.33;14.23;;;25.80;42.80;;;;;;5075432;28;20411;-75
2021/03/30 11:00:32;;;;;;;18.83;15.90;;;26.00;42.80;;;;;;5074830;28;20788;-75
2021/03/30 11:02:58;;;;;;;18.53;14.37;;;26.20;43.10;;;;;;5075275;28;20452;-74
2021/03/30 11:05:25;;;;;;;18.23;15.60;;;26.20;41.20;;;;;;5074699;28;20173;-75
2021/03/30 11:07:51;;;;;;;19.33;16.77;;;26.40;43.40;;;;;;5075232;28;20618;-75
2021/03/30 11:10:17;;;;;;;17.27;15.27;;;26.60;39.50;;;;;;5074845;28;20410;-75
2021/03/30 11:12:43;;;;;;;18.17;16.23;;;26.70;43.00;;;;;;5075057;28;20965;-75
2021/03/30 11:15:11;;;;;;;18.17;15.17;;;26.70;40.50;;;;;;5075026;28;20407;-75
2021/03/30 11:17:37;;;;;;;17.93;15.37;;;26.80;41.90;;;;;;5075095;28;20226;-75
2021/03/30 11:20:05;;;;;;;17.57;15.77;;;26.90;40.30;;;;;;5074986;28;20487;-74
2021/03/30 11:22:31;;;;;;;19.10;16.20;;;27.00;42.00;;;;;;5074261;28;20419;-75
2021/03/30 11:25:00;;;;;;;21.33;17.27;;;27.10;43.50;;;;;;5074815;28;20407;-75
2021/03/30 11:27:27;;;;;;;17.97;13.23;;;27.30;41.00;;;;;;5074335;28;20177;-75
2021/03/30 11:30:06;;;;;;;17.90;14.47;;;27.40;41.60;;;;;;5074873;28;20403;-75
2021/03/30 11:35:34;;;;;;;18.80;15.23;;;27.60;38.60;;;;;;5072830;28;20450;-74
2021/03/30 11:40:25;;;;;;;19.20;14.87;;;27.40;42.40;;;;;;5074015;28;20453;-75
2021/03/30 11:42:51;;;;;;;19.00;16.03;;;27.40;39.60;;;;;;5073869;28;20177;-75
2021/03/30 11:45:17;;;;;;;18.60;15.90;;;27.40;38.40;;;;;;5072662;28;20219;-75
2021/03/30 11:47:43;;;;;;;16.97;14.93;;;27.40;38.80;;;;;;5074487;28;20287;-75
2021/03/30 11:50:09;;;;;;;18.07;14.80;;;27.50;39.20;;;;;;5074446;28;20534;-75
2021/03/30 11:52:35;;;;;;;16.30;13.63;;;27.30;40.60;;;;;;5073732;28;20946;-74
2021/03/30 11:55:02;;;;;;;16.77;14.93;;;27.30;40.00;;;;;;5074071;28;20799;-75
2021/03/30 11:57:28;;;;;;;16.67;13.93;;;27.20;38.00;;;;;;5073624;28;20403;-75
2021/03/30 11:59:54;;;;;;;16.40;13.57;;;27.20;38.70;;;;;;5073817;28;20745;-75
2021/03/30 12:02:19;;;;;;;17.43;13.90;;;27.30;37.80;;;;;;5073571;28;20172;-74
2021/03/30 12:04:45;;;;;;;16.90;14.60;;;27.40;36.70;;;;;;5073845;28;20173;-76
2021/03/30 12:07:11;;;;;;;17.03;13.73;;;27.50;36.60;;;;;;5074065;28;20449;-75
2021/03/30 12:09:37;;;;;;;17.07;15.20;;;27.50;35.60;;;;;;5072038;28;20177;-76
2021/03/30 12:12:03;;;;;;;17.23;13.63;;;27.50;36.40;;;;;;5073934;28;20212;-75
2021/03/30 12:14:28;;;;;;;19.60;15.10;;;27.40;37.20;;;;;;5072186;28;20185;-75
2021/03/30 12:16:54;;;;;;;16.87;13.93;;;27.20;38.40;;;;;;5072453;28;20427;-77
2021/03/30 12:19:20;;;;;;;16.20;13.67;;;27.20;39.60;;;;;;5073213;28;20173;-75
2021/03/30 12:21:47;;;;;;;17.10;14.63;;;27.20;39.80;;;;;;5073678;28;20184;-75
2021/03/30 12:24:13;;;;;;;19.27;13.90;;;27.30;38.70;;;;;;5073837;28;20468;-75
2021/03/30 12:26:39;;;;;;;16.33;13.70;;;27.20;36.60;;;;;;5072721;28;20895;-75
2021/03/30 12:29:05;;;;;;;19.37;16.80;;;27.20;37.40;;;;;;5073352;28;20513;-75
2021/03/30 12:31:32;;;;;;;16.70;13.50;;;27.30;39.00;;;;;;5072805;28;20520;-74
2021/03/30 12:33:58;;;;;;;15.47;13.30;;;27.30;36.50;;;;;;5072269;28;20489;-76
2021/03/30 12:36:25;;;;;;;17.70;14.67;;;27.20;35.90;;;;;;5072648;28;20408;-76
2021/03/30 12:38:51;;;;;;;15.77;13.77;;;27.20;38.60;;;;;;5073469;28;20447;-75
2021/03/30 12:41:17;;;;;;;17.63;15.53;;;27.10;38.00;;;;;;5072804;28;20404;-75
2021/03/30 12:43:43;;;;;;;17.13;14.23;;;27.10;37.30;;;;;;5073373;28;20201;-75
2021/03/30 12:46:10;;;;;;;18.03;15.67;;;27.00;38.40;;;;;;5073102;28;20173;-75
2021/03/30 12:48:36;;;;;;;18.20;13.80;;;27.00;38.50;;;;;;5072678;28;20187;-75
2021/03/30 12:51:02;;;;;;;16.40;14.53;;;27.00;37.40;;;;;;5072813;28;21008;-74
2021/03/30 12:53:28;;;;;;;20.03;13.90;;;27.00;36.20;;;;;;5072249;28;20411;-75
2021/03/30 12:55:54;;;;;;;16.97;14.83;;;26.90;37.80;;;;;;5072291;28;20420;-75
2021/03/30 12:58:19;;;;;;;15.17;13.30;;;27.00;38.80;;;;;;5072240;28;20515;-75